Time;durP1;ratioP1;P1;durP2;ratioP2;P2;SDS_P1;SDS_P2;PMS_P1;PMS_P2;Temp;Humidity;BMP_temperature;BMP_pressure;BME280_temperature;BME280_humidity;BME280_pressure;Samples;Min_cycle;Max_cycle;Signal;HPM_P1;HPM_P2
2023/03/11 00:00:48;;;;;;;1.20;0.50;;;;;;;4.32;64.54;99172.19;12907931;23;20043;-66
2023/03/11 00:05:52;;;;;;;1.05;0.35;;;;;;;4.26;64.30;99183.50;12917200;23;20464;-67
2023/03/11 00:10:55;;;;;;;0.47;0.40;;;;;;;4.25;63.89;99198.63;12918974;23;20500;-67
2023/03/11 00:15:58;;;;;;;0.40;0.40;;;;;;;4.26;64.80;99200.28;12903494;23;20024;-67
2023/03/11 00:21:00;;;;;;;1.58;0.40;;;;;;;4.18;64.25;99216.22;12912923;23;20031;-67
2023/03/11 00:26:02;;;;;;;0.50;0.50;;;;;;;4.20;64.34;99221.38;12880477;23;20028;-67
2023/03/11 00:31:04;;;;;;;0.60;0.50;;;;;;;4.22;64.25;99232.69;12905368;23;20024;-67
2023/03/11 00:36:06;;;;;;;0.80;0.73;;;;;;;4.24;64.32;99244.81;12907469;23;20023;-67
2023/03/11 00:41:07;;;;;;;0.80;0.30;;;;;;;4.13;64.31;99226.53;12904675;23;20105;-67
2023/03/11 00:46:09;;;;;;;0.65;0.40;;;;;;;4.02;64.63;99240.94;12905012;23;20024;-67
2023/03/11 00:51:13;;;;;;;3.38;0.50;;;;;;;3.97;64.31;99248.59;12906783;23;20131;-67
2023/03/11 00:56:15;;;;;;;0.20;0.20;;;;;;;3.89;64.70;99240.56;12907547;23;20078;-68
2023/03/11 01:06:28;;;;;;;0.93;0.28;;;;;;;3.83;63.95;99273.09;12778840;23;20025;-66
2023/03/11 01:11:44;;;;;;;1.98;0.40;;;;;;;3.83;63.95;99275.75;12782636;23;20082;-68
2023/03/11 01:16:46;;;;;;;1.38;0.47;;;;;;;3.88;63.79;99286.75;12780730;23;20029;-68
2023/03/11 01:21:48;;;;;;;0.30;0.20;;;;;;;3.89;63.63;99280.44;12785218;23;20035;-68
2023/03/11 01:26:49;;;;;;;0.60;0.17;;;;;;;3.90;63.50;99284.78;12780235;23;20021;-68
2023/03/11 01:31:50;;;;;;;3.35;0.30;;;;;;;3.91;63.54;99281.09;12782588;23;20025;-68
2023/03/11 01:36:52;;;;;;;0.32;0.20;;;;;;;3.89;63.36;99289.25;12781664;23;20083;-68
2023/03/11 01:41:54;;;;;;;1.83;0.25;;;;;;;3.83;63.34;99281.94;12782064;23;20024;-68
2023/03/11 01:46:58;;;;;;;3.03;0.30;;;;;;;3.87;62.88;99282.41;12782287;23;20024;-66
2023/03/11 01:52:06;;;;;;;1.55;0.40;;;;;;;3.81;62.58;99299.88;12781170;23;20025;-67
2023/03/11 01:57:12;;;;;;;1.27;0.30;;;;;;;3.85;62.91;99314.50;12781684;23;20036;-66
2023/03/11 02:02:20;;;;;;;0.85;0.32;;;;;;;3.60;64.38;99320.66;12790922;23;20024;-66
2023/03/11 02:07:21;;;;;;;0.68;0.20;;;;;;;3.58;65.01;99324.31;12841499;23;20032;-66
2023/03/11 02:12:24;;;;;;;3.00;0.30;;;;;;;3.35;66.39;99323.16;12841664;23;20020;-66
2023/03/11 02:17:25;;;;;;;4.82;0.38;;;;;;;3.28;67.05;99314.97;12839931;23;20021;-67
2023/03/11 02:22:30;;;;;;;0.65;0.30;;;;;;;3.29;65.94;99299.88;12843310;23;20032;-66
2023/03/11 02:27:35;;;;;;;2.22;0.30;;;;;;;3.28;65.68;99291.06;12848553;23;20078;-66
2023/03/11 02:32:36;;;;;;;3.65;0.65;;;;;;;3.27;64.87;99297.34;12844510;23;20020;-66
2023/03/11 02:37:44;;;;;;;4.28;1.02;;;;;;;3.34;64.65;99289.63;12844444;23;20461;-67
2023/03/11 02:42:45;;;;;;;1.13;0.40;;;;;;;3.29;64.46;99297.22;12846567;23;20028;-67
2023/03/11 02:47:47;;;;;;;0.20;0.20;;;;;;;3.28;64.06;99312.31;12846763;23;20465;-67
2023/03/11 02:52:50;;;;;;;4.07;0.40;;;;;;;3.24;64.31;99303.00;12847320;23;20480;-67
2023/03/11 02:57:51;;;;;;;2.15;0.40;;;;;;;3.28;64.06;99307.00;12861766;23;20004;-66
2023/03/11 03:02:56;;;;;;;0.68;0.50;;;;;;;3.27;64.10;99312.47;12906282;23;20017;-66
2023/03/11 03:07:57;;;;;;;1.02;0.60;;;;;;;3.30;63.96;99318.31;12906785;23;20070;-66
2023/03/11 03:12:59;;;;;;;1.75;0.40;;;;;;;3.29;63.38;99334.38;12906531;23;20083;-66
2023/03/11 03:18:00;;;;;;;1.67;0.47;;;;;;;3.35;63.81;99339.91;12879706;23;20068;-66
2023/03/11 03:23:02;;;;;;;4.90;0.60;;;;;;;3.37;63.64;99343.25;12907394;23;20013;-66
2023/03/11 03:28:03;;;;;;;2.00;0.45;;;;;;;3.36;63.25;99346.91;12905325;23;20013;-66
2023/03/11 03:33:06;;;;;;;1.52;0.35;;;;;;;3.42;63.39;99364.03;12880525;23;20004;-66
2023/03/11 03:38:07;;;;;;;0.57;0.30;;;;;;;3.36;63.50;99372.63;12905898;23;20066;-66
2023/03/11 03:43:08;;;;;;;1.00;0.32;;;;;;;3.37;63.48;99375.13;12905699;23;20012;-67
2023/03/11 03:48:10;;;;;;;1.38;0.35;;;;;;;3.38;63.39;99381.28;12912628;23;20016;-66
2023/03/11 03:53:11;;;;;;;1.15;0.30;;;;;;;3.43;63.93;99391.44;12905942;23;20052;-66
2023/03/11 03:58:12;;;;;;;6.78;0.47;;;;;;;3.44;63.58;99404.56;12904567;23;20019;-66
2023/03/11 04:03:14;;;;;;;1.75;0.60;;;;;;;3.45;63.77;99397.44;12904879;23;20060;-67
2023/03/11 04:08:15;;;;;;;1.17;0.40;;;;;;;3.49;64.02;99398.78;12880067;23;20012;-67
2023/03/11 04:13:17;;;;;;;2.17;0.80;;;;;;;3.57;63.57;99397.03;12879402;23;20008;-66
2023/03/11 04:18:18;;;;;;;2.25;0.60;;;;;;;3.52;62.42;99409.94;12903886;23;20082;-66
2023/03/11 04:23:19;;;;;;;3.25;0.90;;;;;;;3.63;62.02;99414.16;12906733;23;20120;-67
2023/03/11 04:28:21;;;;;;;1.42;0.80;;;;;;;3.73;62.02;99428.22;12903663;23;20012;-66
2023/03/11 04:33:22;;;;;;;6.88;1.60;;;;;;;3.72;62.09;99423.88;12904797;23;20004;-66
2023/03/11 04:38:24;;;;;;;2.42;1.00;;;;;;;3.88;61.83;99425.81;12876952;23;20021;-67
2023/03/11 04:43:25;;;;;;;5.95;1.00;;;;;;;3.78;61.81;99431.22;12904611;23;20195;-68
2023/03/11 04:48:26;;;;;;;2.15;0.75;;;;;;;3.71;62.08;99435.50;12910335;23;20072;-65
2023/03/11 04:53:28;;;;;;;2.45;1.00;;;;;;;3.69;62.28;99444.63;12905642;23;20056;-66
2023/03/11 04:58:29;;;;;;;1.17;0.60;;;;;;;3.66;61.83;99440.44;12876562;23;20005;-66
2023/03/11 05:03:31;;;;;;;1.00;0.80;;;;;;;3.62;61.95;99448.91;12903260;23;20055;-67
2023/03/11 05:08:32;;;;;;;4.72;0.80;;;;;;;3.59;61.71;99452.66;12904522;23;20060;-66
2023/03/11 05:13:34;;;;;;;4.95;0.70;;;;;;;3.65;61.39;99457.38;12878567;23;20009;-67
2023/03/11 05:18:35;;;;;;;7.50;0.80;;;;;;;3.71;61.36;99466.56;12902924;23;20027;-67
2023/03/11 05:23:36;;;;;;;2.55;0.70;;;;;;;3.60;61.84;99478.25;12904608;23;20044;-66
2023/03/11 05:28:38;;;;;;;1.13;0.65;;;;;;;3.76;61.60;99483.72;12902409;23;20047;-67
2023/03/11 05:33:39;;;;;;;1.50;0.65;;;;;;;3.94;61.42;99488.16;12874153;23;20629;-67
2023/03/11 05:38:41;;;;;;;2.90;1.00;;;;;;;3.96;61.45;99491.50;12905376;23;20048;-67
2023/03/11 05:43:42;;;;;;;5.60;1.25;;;;;;;3.86;62.01;99486.28;12896561;23;20016;-67
2023/03/11 05:48:43;;;;;;;3.20;0.98;;;;;;;4.00;61.71;99484.88;12889612;23;20020;-65
2023/03/11 05:53:47;;;;;;;5.68;1.10;;;;;;;4.08;61.70;99490.25;12834326;23;20021;-64
2023/03/11 05:58:49;;;;;;;2.85;1.20;;;;;;;4.21;61.55;99489.88;12853010;23;20095;-66
2023/03/11 06:03:50;;;;;;;3.75;1.05;;;;;;;4.31;61.28;99498.56;12862558;23;20029;-65
2023/03/11 06:08:53;;;;;;;3.30;1.23;;;;;;;4.23;61.67;99497.69;12865416;23;20020;-62
2023/03/11 06:13:56;;;;;;;4.10;1.35;;;;;;;4.20;61.62;99513.94;12866721;23;20028;-63
2023/03/11 06:18:59;;;;;;;2.78;1.20;;;;;;;3.94;61.59;99525.41;12868676;23;20028;-66
2023/03/11 06:24:01;;;;;;;5.00;1.65;;;;;;;3.89;61.34;99522.34;12821671;23;20044;-66
2023/03/11 06:29:02;;;;;;;7.38;0.70;;;;;;;4.08;60.86;99526.66;12841240;23;20032;-62
2023/03/11 06:34:05;;;;;;;5.60;1.63;;;;;;;4.29;60.16;99539.63;12866314;23;20177;-64
2023/03/11 06:39:06;;;;;;;6.22;1.10;;;;;;;4.39;60.31;99553.66;12816528;23;20024;-63
2023/03/11 06:44:09;;;;;;;2.38;0.95;;;;;;;4.30;60.40;99559.91;12878936;23;20032;-64
2023/03/11 06:49:10;;;;;;;3.63;1.00;;;;;;;4.37;60.61;99563.63;12870695;23;20033;-65
2023/03/11 06:54:12;;;;;;;4.32;1.27;;;;;;;4.42;60.29;99582.59;12867477;23;20023;-62
2023/03/11 06:59:14;;;;;;;6.60;1.00;;;;;;;4.14;60.91;99585.38;12862062;23;20024;-68
2023/03/11 07:04:15;;;;;;;7.25;0.77;;;;;;;4.25;60.15;99594.13;12846453;23;20032;-67
2023/03/11 07:09:17;;;;;;;6.30;0.98;;;;;;;4.19;59.83;99603.56;12846387;23;20032;-67
2023/03/11 07:14:18;;;;;;;7.57;0.73;;;;;;;4.22;59.45;99605.06;12847002;23;20029;-67
2023/03/11 07:19:20;;;;;;;6.30;1.95;;;;;;;4.34;59.00;99614.47;12842505;23;20035;-67
2023/03/11 07:24:22;;;;;;;2.97;0.88;;;;;;;4.51;58.63;99613.63;12843078;23;20087;-67
2023/03/11 07:29:23;;;;;;;9.43;1.90;;;;;;;4.63;58.07;99621.34;12843803;23;20075;-67
2023/03/11 07:34:25;;;;;;;6.80;1.30;;;;;;;4.60;58.43;99632.31;12844953;23;20055;-67
2023/03/11 07:39:26;;;;;;;8.27;1.17;;;;;;;4.81;58.10;99647.94;12839309;23;20020;-68
2023/03/11 07:44:28;;;;;;;4.13;0.80;;;;;;;5.12;57.42;99657.13;12855320;23;20024;-67
2023/03/11 07:49:29;;;;;;;6.05;0.80;;;;;;;4.82;57.33;99663.75;12847059;23;20028;-68
2023/03/11 07:54:31;;;;;;;8.02;0.90;;;;;;;4.83;57.76;99667.25;12819324;23;20029;-68
2023/03/11 07:59:32;;;;;;;12.05;2.22;;;;;;;4.75;57.20;99684.81;12853294;23;20348;-68
2023/03/11 08:04:34;;;;;;;2.28;1.10;;;;;;;4.79;57.22;99684.53;12818909;23;20502;-68
2023/03/11 08:09:35;;;;;;;5.00;1.15;;;;;;;4.64;57.01;99687.75;12817389;23;20043;-68
2023/03/11 08:14:38;;;;;;;8.30;2.08;;;;;;;4.63;56.45;99693.22;12845130;23;20031;-68
2023/03/11 08:19:39;;;;;;;2.58;0.68;;;;;;;4.84;56.37;99696.38;12815873;23;20477;-68
2023/03/11 08:24:41;;;;;;;3.83;1.20;;;;;;;4.73;56.20;99708.09;12842879;23;20024;-68
2023/03/11 08:29:42;;;;;;;6.28;0.60;;;;;;;5.26;55.63;99716.13;12852688;23;20034;-68
2023/03/11 08:34:44;;;;;;;4.93;0.80;;;;;;;5.47;55.40;99750.38;12843463;23;20029;-68
2023/03/11 08:39:45;;;;;;;3.05;1.00;;;;;;;5.60;55.50;99744.66;12843721;23;20055;-68
2023/03/11 08:44:47;;;;;;;3.88;0.65;;;;;;;5.66;55.07;99746.66;12815792;23;20618;-68
2023/03/11 08:49:48;;;;;;;5.45;0.90;;;;;;;5.60;54.84;99758.81;12842868;23;20075;-68
2023/03/11 08:54:50;;;;;;;4.72;0.73;;;;;;;5.63;55.24;99749.63;12842910;23;20020;-70
2023/03/11 08:59:51;;;;;;;3.00;0.75;;;;;;;5.76;54.98;99745.53;12816646;23;20028;-68
2023/03/11 09:04:52;;;;;;;4.30;0.80;;;;;;;5.68;54.33;99760.69;12815504;23;20090;-68
2023/03/11 09:09:54;;;;;;;1.92;0.50;;;;;;;5.75;54.07;99757.22;12843288;23;20102;-69
2023/03/11 09:14:55;;;;;;;5.60;0.50;;;;;;;5.80;53.67;99756.72;12843729;23;20083;-68
2023/03/11 09:19:57;;;;;;;2.60;0.40;;;;;;;5.76;53.31;99760.72;12841577;23;20055;-69
2023/03/11 09:24:58;;;;;;;1.67;0.70;;;;;;;5.67;52.50;99759.03;12844499;23;20028;-69
2023/03/11 09:29:59;;;;;;;1.15;0.30;;;;;;;5.75;52.19;99767.06;12843966;23;20031;-68
2023/03/11 09:35:01;;;;;;;3.55;0.50;;;;;;;5.89;52.12;99769.13;12856721;23;20090;-68
2023/03/11 09:40:03;;;;;;;3.72;0.77;;;;;;;6.08;51.80;99773.41;12816709;23;20029;-68
2023/03/11 09:45:28;;;;;;;4.20;1.60;;;;;;;5.95;51.39;99765.84;12814622;23;20024;-69
2023/03/11 09:50:34;;;;;;;3.33;0.38;;;;;;;6.23;51.12;99762.94;12842254;23;20393;-69
2023/03/11 09:55:41;;;;;;;3.17;0.47;;;;;;;6.11;50.66;99761.56;12842954;23;20021;-69
2023/03/11 10:00:44;;;;;;;7.55;1.25;;;;;;;6.17;49.52;99758.25;12842959;23;20350;-65
2023/03/11 10:05:45;;;;;;;2.25;0.60;;;;;;;6.53;50.02;99761.47;12749425;23;20021;-65
2023/03/11 10:10:58;;;;;;;2.55;0.30;;;;;;;6.54;48.74;99757.00;12777535;23;20025;-66
2023/03/11 10:16:12;;;;;;;1.83;0.55;;;;;;;6.90;49.02;99754.03;12779519;23;20104;-66
2023/03/11 10:21:34;;;;;;;1.60;0.30;;;;;;;6.99;48.19;99757.50;12780536;23;20017;-66
2023/03/11 10:26:47;;;;;;;0.60;0.20;;;;;;;7.56;47.70;99762.78;12781491;23;20021;-66
2023/03/11 10:32:01;;;;;;;2.17;0.40;;;;;;;7.40;47.07;99757.47;12781755;23;20028;-66
2023/03/11 10:37:15;;;;;;;4.20;0.60;;;;;;;7.03;47.46;99767.72;12779285;23;20036;-67
2023/03/11 10:42:27;;;;;;;4.78;0.60;;;;;;;6.89;47.82;99766.56;12780056;23;20025;-65
2023/03/11 10:47:28;;;;;;;4.40;0.82;;;;;;;6.99;47.87;99773.53;12778801;23;20509;-65
2023/03/11 10:52:30;;;;;;;2.05;0.40;;;;;;;7.11;47.27;99780.25;12777843;23;20029;-66
2023/03/11 10:57:34;;;;;;;1.65;0.52;;;;;;;7.31;47.25;99770.88;12780559;23;20143;-66
2023/03/11 11:02:49;;;;;;;5.88;0.82;;;;;;;7.13;46.12;99778.25;12797838;23;20033;-66
2023/03/11 11:08:20;;;;;;;3.58;0.30;;;;;;;7.06;46.61;99785.25;12844706;23;20028;-66
2023/03/11 11:13:24;;;;;;;2.58;0.40;;;;;;;7.17;45.83;99789.41;12846673;23;20075;-66
2023/03/11 11:18:31;;;;;;;3.28;0.20;;;;;;;7.34;45.45;99781.19;12819207;23;20032;-66
2023/03/11 11:23:37;;;;;;;0.93;0.10;;;;;;;7.42;43.99;99783.03;12849622;23;20374;-71
2023/03/11 11:28:38;;;;;;;1.48;0.63;;;;;;;7.68;44.12;99788.19;12820279;23;20028;-68
2023/03/11 11:33:49;;;;;;;2.75;0.30;;;;;;;7.80;43.76;99785.13;12845443;23;20024;-72
2023/03/11 11:38:53;;;;;;;0.77;0.20;;;;;;;6.95;42.59;99795.28;12826839;23;20083;-67
2023/03/11 11:44:04;;;;;;;4.85;0.30;;;;;;;7.31;42.71;99791.41;12846997;23;20036;-71
2023/03/11 11:49:28;;;;;;;1.88;0.20;;;;;;;6.74;41.58;99811.78;12824912;23;20028;-72
2023/03/11 11:54:34;;;;;;;1.88;0.30;;;;;;;6.50;41.38;99804.56;12821376;23;20036;-69
2023/03/11 11:59:35;;;;;;;6.15;0.30;;;;;;;6.57;41.87;99803.88;12821350;23;20087;-71
2023/03/11 12:04:52;;;;;;;2.85;0.30;;;;;;;6.80;41.66;99794.25;12795844;23;20029;-66
2023/03/11 12:10:05;;;;;;;1.63;0.20;;;;;;;6.79;42.03;99795.25;12794470;23;20086;-65
2023/03/11 12:15:32;;;;;;;0.93;0.40;;;;;;;7.06;42.06;99798.59;12852623;23;20087;-65
2023/03/11 12:20:44;;;;;;;2.28;0.20;;;;;;;6.63;41.39;99795.22;12846683;23;20044;-66
2023/03/11 12:26:03;;;;;;;3.03;0.77;;;;;;;6.56;41.37;99792.38;12841439;23;20024;-65
2023/03/11 12:31:09;;;;;;;1.90;0.25;;;;;;;6.50;41.30;99795.72;12848522;23;20457;-65
2023/03/11 12:36:30;;;;;;;2.35;0.20;;;;;;;6.69;40.85;99795.38;12819154;23;20016;-66
2023/03/11 12:41:40;;;;;;;3.50;0.50;;;;;;;6.66;40.65;99792.25;12844704;23;20024;-65
2023/03/11 12:46:57;;;;;;;3.40;0.50;;;;;;;6.72;39.82;99792.41;12842100;23;20076;-64
2023/03/11 12:52:07;;;;;;;2.85;0.30;;;;;;;7.07;40.77;99786.91;12845179;23;20082;-63
2023/03/11 12:57:18;;;;;;;1.13;0.20;;;;;;;7.63;40.30;99782.50;12845826;23;20017;-63
2023/03/11 13:02:35;;;;;;;1.65;0.20;;;;;;;8.32;40.36;99776.56;12848980;23;20024;-67
2023/03/11 13:07:45;;;;;;;2.87;0.10;;;;;;;8.32;40.18;99793.44;12847351;23;20191;-67
2023/03/11 13:12:51;;;;;;;1.20;0.60;;;;;;;7.86;40.44;99784.44;12847034;23;20302;-69
2023/03/11 13:18:01;;;;;;;1.90;0.30;;;;;;;8.34;39.14;99796.78;12830537;23;20469;-68
2023/03/11 13:23:02;;;;;;;1.15;0.20;;;;;;;8.04;38.78;99803.78;12834055;23;20028;-68
2023/03/11 13:28:40;;;;;;;2.15;0.20;;;;;;;7.83;38.76;99806.19;12848764;23;20032;-68
2023/03/11 13:33:53;;;;;;;1.33;0.40;;;;;;;7.69;39.02;99805.06;12848003;23;20169;-68
2023/03/11 13:39:11;;;;;;;1.30;0.20;;;;;;;7.94;39.34;99812.00;12845600;23;20079;-67
2023/03/11 13:44:12;;;;;;;;;;;;;;;7.74;39.05;99822.28;12846966;23;20087;-68
2023/03/11 13:49:32;;;;;;;4.88;0.88;;;;;;;8.12;39.80;99825.16;12815326;23;19923;-68
2023/03/11 13:54:41;;;;;;;3.38;0.28;;;;;;;8.25;39.18;99827.28;12845688;23;20441;-70
2023/03/11 13:59:42;;;;;;;5.28;0.30;;;;;;;8.42;39.37;99838.78;12853425;23;20396;-69
2023/03/11 14:04:50;;;;;;;5.22;0.20;;;;;;;8.41;38.85;99838.94;12845568;23;20039;-69
2023/03/11 14:10:10;;;;;;;2.47;0.20;;;;;;;7.82;39.19;99850.84;12818178;23;20020;-69
2023/03/11 14:15:17;;;;;;;2.88;0.30;;;;;;;7.70;38.85;99837.00;12818753;23;20372;-70
2023/03/11 14:20:22;;;;;;;1.48;0.20;;;;;;;7.89;38.72;99830.41;12843373;23;20087;-70
2023/03/11 14:25:26;;;;;;;1.38;0.20;;;;;;;7.81;38.08;99827.75;12845800;23;20029;-68
2023/03/11 14:30:30;;;;;;;2.10;0.20;;;;;;;7.72;38.61;99831.44;12846785;23;20017;-69
2023/03/11 14:35:32;;;;;;;1.92;0.20;;;;;;;8.17;38.11;99816.59;12819979;23;20075;-70
2023/03/11 14:40:40;;;;;;;3.22;0.47;;;;;;;8.54;37.96;99807.09;12848403;23;20029;-70
2023/03/11 14:45:42;;;;;;;3.05;0.20;;;;;;;8.56;38.16;99809.59;12828187;23;20087;-68
2023/03/11 14:50:48;;;;;;;0.80;0.30;;;;;;;8.77;38.33;99815.16;12849404;23;20020;-68
2023/03/11 14:55:58;;;;;;;2.15;0.10;;;;;;;9.02;38.25;99810.44;12848677;23;20020;-69
2023/03/11 15:01:24;;;;;;;3.70;0.30;;;;;;;8.95;37.99;99817.56;12848705;23;20020;-69
2023/03/11 15:06:28;;;;;;;1.98;0.20;;;;;;;8.95;37.96;99825.59;12848424;23;20020;-69
2023/03/11 15:11:31;;;;;;;0.68;0.30;;;;;;;8.71;38.04;99829.28;12858708;23;20098;-67
2023/03/11 15:16:35;;;;;;;1.88;0.20;;;;;;;8.82;37.57;99836.06;12846893;23;20025;-67
2023/03/11 15:21:45;;;;;;;0.85;0.20;;;;;;;8.58;37.71;99829.00;12857830;23;20021;-67
2023/03/11 15:27:00;;;;;;;4.07;0.30;;;;;;;8.79;38.21;99829.22;12860275;23;20021;-69
2023/03/11 15:32:30;;;;;;;1.58;0.30;;;;;;;9.11;37.70;99828.16;12859428;23;20094;-68
2023/03/11 15:37:32;;;;;;;0.77;0.20;;;;;;;8.45;37.31;99846.50;12850267;23;20028;-67
2023/03/11 15:42:34;;;;;;;0.45;0.20;;;;;;;8.36;37.89;99844.81;12852621;23;20027;-68
2023/03/11 15:47:36;;;;;;;2.28;0.50;;;;;;;8.81;37.98;99848.63;12851835;23;20086;-67
2023/03/11 15:52:37;;;;;;;3.85;0.20;;;;;;;8.61;37.95;99852.75;12849601;23;20040;-66
2023/03/11 15:57:39;;;;;;;1.27;0.20;;;;;;;8.59;37.53;99860.13;12853946;23;20016;-68
2023/03/11 16:02:40;;;;;;;1.13;0.20;;;;;;;8.61;37.99;99866.16;12853610;23;20098;-67
2023/03/11 16:07:42;;;;;;;2.55;0.73;;;;;;;8.78;37.81;99875.78;12851725;23;20032;-70
2023/03/11 16:12:43;;;;;;;2.40;0.40;;;;;;;8.82;37.55;99865.53;12824708;23;20024;-70
2023/03/11 16:17:45;;;;;;;6.18;2.22;;;;;;;8.85;37.15;99866.03;12853030;23;20031;-69
2023/03/11 16:22:53;;;;;;;2.40;0.80;;;;;;;8.91;37.56;99869.84;12850159;23;20048;-69
2023/03/11 16:27:56;;;;;;;2.00;0.30;;;;;;;8.89;37.56;99864.66;12854374;23;20051;-70
2023/03/11 16:32:57;;;;;;;2.42;0.40;;;;;;;8.33;38.35;99872.78;12877535;23;20004;-67
2023/03/11 16:37:59;;;;;;;0.40;0.30;;;;;;;8.16;37.91;99881.88;12903372;23;20013;-66
2023/03/11 16:43:03;;;;;;;4.00;0.63;;;;;;;8.12;38.21;99883.22;12920890;22;20036;-67
2023/03/11 16:48:06;;;;;;;3.33;0.60;;;;;;;8.11;38.69;99890.41;13037467;22;20018;-69
2023/03/11 16:53:07;;;;;;;5.35;1.20;;;;;;;8.10;39.01;99878.03;13031488;22;20008;-68
2023/03/11 16:58:09;;;;;;;1.77;0.40;;;;;;;7.86;38.98;99892.31;12993346;22;20027;-68
2023/03/11 17:03:15;;;;;;;3.58;0.90;;;;;;;7.67;38.90;99895.34;12999302;22;20187;-67
2023/03/11 17:08:18;;;;;;;0.93;0.30;;;;;;;7.62;39.14;99903.03;12995562;22;20028;-66
2023/03/11 17:13:19;;;;;;;4.88;0.30;;;;;;;7.35;39.61;99910.41;13029335;22;20032;-66
2023/03/11 17:18:21;;;;;;;2.28;0.30;;;;;;;7.22;39.16;99921.56;13019755;22;20020;-70
2023/03/11 17:23:23;;;;;;;2.63;0.32;;;;;;;7.03;39.68;99916.50;12968880;22;20008;-68
2023/03/11 17:28:24;;;;;;;2.38;0.50;;;;;;;6.93;40.13;99930.88;12934345;22;20027;-67
2023/03/11 17:33:26;;;;;;;3.40;1.08;;;;;;;6.84;39.94;99937.19;12873253;22;20012;-69
2023/03/11 17:38:28;;;;;;;4.72;0.45;;;;;;;6.82;40.68;99939.19;12968310;23;20062;-68
2023/03/11 17:43:29;;;;;;;3.45;0.85;;;;;;;6.79;40.31;99935.97;12952515;23;20017;-68
2023/03/11 17:48:31;;;;;;;4.95;1.15;;;;;;;6.74;40.30;99941.81;12945094;23;20035;-67
2023/03/11 17:53:32;;;;;;;7.95;1.48;;;;;;;6.65;41.37;99946.28;12910900;23;20028;-68
2023/03/11 17:58:34;;;;;;;3.42;0.75;;;;;;;6.56;42.30;99952.59;12906403;23;20082;-67
2023/03/11 18:03:35;;;;;;;4.80;1.15;;;;;;;6.46;42.46;99954.56;12916175;22;20023;-66
2023/03/11 18:08:37;;;;;;;4.65;1.20;;;;;;;6.32;43.35;99962.16;12919631;23;20062;-67
2023/03/11 18:13:39;;;;;;;3.80;1.00;;;;;;;6.21;43.45;99958.91;12915398;23;20054;-70
2023/03/11 18:18:42;;;;;;;6.78;2.28;;;;;;;6.09;43.19;99977.84;12939191;23;20028;-68
2023/03/11 18:23:44;;;;;;;4.82;2.05;;;;;;;5.98;44.53;99988.75;12947911;23;20035;-68
2023/03/11 18:28:46;;;;;;;5.82;2.90;;;;;;;5.88;44.67;99988.81;12964802;23;20030;-69
2023/03/11 18:33:50;;;;;;;4.43;1.20;;;;;;;5.78;45.38;99989.91;12947543;23;20059;-69
2023/03/11 18:38:53;;;;;;;5.20;2.50;;;;;;;5.61;45.68;99987.13;12952484;23;20024;-67
2023/03/11 18:43:56;;;;;;;5.13;1.50;;;;;;;5.23;46.23;99994.38;12954066;23;20028;-68
2023/03/11 18:48:59;;;;;;;5.25;2.05;;;;;;;5.13;46.56;100001.59;12934713;23;20460;-68
2023/03/11 18:54:01;;;;;;;5.32;1.23;;;;;;;5.04;46.77;99994.53;12917738;23;20086;-68
2023/03/11 18:59:03;;;;;;;10.00;1.63;;;;;;;4.98;46.61;100003.94;12931215;23;20024;-68
2023/03/11 19:04:04;;;;;;;7.15;2.65;;;;;;;4.88;47.00;99998.66;12918646;22;20027;-70
2023/03/11 19:09:06;;;;;;;11.60;2.17;;;;;;;4.79;47.35;99994.22;12936910;23;20051;-67
2023/03/11 19:14:07;;;;;;;8.35;2.55;;;;;;;4.67;47.68;99992.75;12950236;23;20028;-68
2023/03/11 19:19:08;;;;;;;13.07;5.72;;;;;;;4.60;48.42;99999.63;12953983;23;20025;-68
2023/03/11 19:24:13;;;;;;;8.40;3.58;;;;;;;4.52;48.73;100001.22;12952078;23;20040;-69
2023/03/11 19:29:14;;;;;;;9.77;3.30;;;;;;;4.42;48.82;100011.03;12954143;23;20073;-69
2023/03/11 19:34:15;;;;;;;6.32;3.20;;;;;;;4.33;49.23;100010.06;12908471;23;20473;-76
2023/03/11 19:39:17;;;;;;;6.72;2.00;;;;;;;4.12;50.02;100014.75;12905897;23;20024;-76
2023/03/11 19:44:18;;;;;;;5.25;1.50;;;;;;;3.87;50.63;100016.16;12909483;23;20039;-73
2023/03/11 19:49:20;;;;;;;7.18;2.45;;;;;;;3.86;50.23;100014.50;12910072;23;20036;-71
2023/03/11 19:54:22;;;;;;;13.50;5.00;;;;;;;3.66;50.87;100016.31;12909368;23;20016;-74
2023/03/11 19:59:23;;;;;;;12.57;4.65;;;;;;;3.54;51.33;100020.94;12908243;23;20042;-73
2023/03/11 20:04:25;;;;;;;16.50;5.82;;;;;;;3.42;51.52;100025.53;12909425;22;20028;-70
2023/03/11 20:09:26;;;;;;;17.05;4.60;;;;;;;3.23;52.09;100046.75;12914643;23;20016;-76
2023/03/11 20:14:28;;;;;;;13.52;4.55;;;;;;;3.14;52.50;100051.03;12911390;23;20289;-75
2023/03/11 20:19:29;;;;;;;8.60;4.47;;;;;;;3.21;52.41;100046.06;12946373;22;20081;-77
2023/03/11 20:24:30;;;;;;;11.50;4.45;;;;;;;3.22;52.47;100050.38;12979374;22;20039;-74
2023/03/11 20:29:32;;;;;;;12.88;4.57;;;;;;;3.19;52.58;100048.84;12973707;22;20027;-79
2023/03/11 20:34:33;;;;;;;8.95;5.10;;;;;;;3.10;52.72;100058.47;12948484;22;20401;-76
2023/03/11 20:39:37;;;;;;;7.35;3.55;;;;;;;3.03;52.69;100061.78;12979983;22;20031;-76
2023/03/11 20:44:38;;;;;;;8.20;3.10;;;;;;;3.02;53.09;100052.13;12983215;22;20057;-77
2023/03/11 20:49:41;;;;;;;8.82;4.38;;;;;;;2.92;53.18;100066.22;12921709;22;20027;-80
2023/03/11 20:54:43;;;;;;;10.07;4.38;;;;;;;2.91;53.50;100064.53;12976058;22;20054;-72
2023/03/11 20:59:44;;;;;;;14.70;6.40;;;;;;;2.86;53.36;100071.22;12949444;22;20020;-70
2023/03/11 21:04:46;;;;;;;10.52;4.93;;;;;;;2.87;53.77;100072.91;12969719;22;20024;-75
2023/03/11 21:09:53;;;;;;;7.68;2.88;;;;;;;2.82;53.94;100062.69;12970537;22;20098;-78
2023/03/11 21:14:54;;;;;;;11.55;4.90;;;;;;;2.83;54.19;100063.53;12949804;22;20035;-79
2023/03/11 21:19:56;;;;;;;11.48;4.60;;;;;;;2.76;54.06;100072.03;12941447;22;20629;-76
2023/03/11 21:24:57;;;;;;;7.57;2.60;;;;;;;2.67;54.11;100087.91;12970167;22;20027;-73
2023/03/11 21:29:59;;;;;;;5.40;1.90;;;;;;;2.68;54.47;100087.75;12966356;22;20806;-77
2023/03/11 21:35:01;;;;;;;3.95;1.80;;;;;;;2.66;54.96;100073.78;12943845;22;20035;-74
2023/03/11 21:40:02;;;;;;;8.05;2.08;;;;;;;2.60;54.43;100074.31;12969663;22;20019;-76
2023/03/11 21:45:04;;;;;;;8.05;3.10;;;;;;;2.61;55.27;100075.13;12969973;22;20032;-72
2023/03/11 21:50:06;;;;;;;10.07;3.33;;;;;;;2.61;54.81;100073.34;12941482;22;20483;-73
2023/03/11 21:55:08;;;;;;;9.25;3.22;;;;;;;2.54;55.66;100078.31;12944057;22;20023;-73
2023/03/11 22:00:11;;;;;;;9.13;2.10;;;;;;;2.48;55.19;100064.75;12950732;22;20085;-77
2023/03/11 22:05:13;;;;;;;6.88;2.45;;;;;;;2.45;55.92;100073.81;12984669;22;20031;-78
2023/03/11 22:10:15;;;;;;;9.80;2.97;;;;;;;2.38;56.33;100084.09;12974584;22;20038;-76
2023/03/11 22:15:20;;;;;;;10.15;6.13;;;;;;;2.34;56.37;100076.53;12940808;22;20036;-76
2023/03/11 22:20:21;;;;;;;8.52;3.65;;;;;;;2.29;56.74;100084.03;12983834;22;20019;-75
2023/03/11 22:25:23;;;;;;;18.10;6.88;;;;;;;2.23;56.59;100082.72;12973228;22;20026;-75
2023/03/11 22:30:24;;;;;;;14.98;5.28;;;;;;;2.21;56.34;100086.47;12978948;22;20023;-77
2023/03/11 22:35:26;;;;;;;14.38;5.40;;;;;;;2.17;56.46;100084.09;12991436;22;20038;-68
2023/03/11 22:40:28;;;;;;;12.13;5.15;;;;;;;2.13;56.88;100084.47;12988048;22;20078;-69
2023/03/11 22:45:29;;;;;;;11.18;4.93;;;;;;;2.09;57.14;100086.53;12990838;22;20050;-69
2023/03/11 22:50:32;;;;;;;15.27;5.72;;;;;;;2.07;57.89;100087.63;12987427;22;20084;-68
2023/03/11 22:55:38;;;;;;;17.42;5.40;;;;;;;2.05;57.53;100081.63;12981425;22;20055;-68
2023/03/11 23:00:42;;;;;;;15.30;5.55;;;;;;;2.10;57.79;100087.41;12990922;22;20511;-67
2023/03/11 23:05:45;;;;;;;11.30;4.63;;;;;;;2.09;57.62;100083.06;12990784;22;20020;-68
2023/03/11 23:10:47;;;;;;;14.88;4.55;;;;;;;2.09;57.72;100083.06;12980748;22;20055;-68
2023/03/11 23:15:48;;;;;;;13.73;4.45;;;;;;;2.12;58.52;100083.63;12978082;22;20027;-68
2023/03/11 23:20:50;;;;;;;16.17;5.95;;;;;;;2.12;57.83;100088.09;12979076;22;20027;-69
2023/03/11 23:25:52;;;;;;;10.55;3.95;;;;;;;2.10;58.62;100101.47;12954129;22;20489;-70
2023/03/11 23:30:53;;;;;;;12.70;4.53;;;;;;;2.06;58.29;100099.22;12986762;22;20019;-67
2023/03/11 23:35:59;;;;;;;16.83;5.85;;;;;;;2.04;59.00;100096.69;12999742;22;20036;-68
2023/03/11 23:41:07;;;;;;;9.68;3.65;;;;;;;2.02;58.33;100089.84;13005644;22;20028;-68
2023/03/11 23:46:09;;;;;;;15.02;5.30;;;;;;;2.01;59.14;100086.34;12963753;22;20027;-68
2023/03/11 23:51:10;;;;;;;13.07;4.30;;;;;;;1.98;58.97;100092.75;13001189;22;21158;-67